Terminal Aerodrome Forecast
Issued by NWS Jackson, MS

Home | Current Version | Previous Version | Text Only | Print | Product List | Glossary On
Versions: 1 2 3 4 5 6 7 8 9 10 11 12 13 14 15 16 17 18
120
FTUS44 KJAN 251145
TAFGLH
TAF
KGLH 251145Z 2512/2612 22003KT 6SM BR FEW090 SCT250
     FM251500 26005KT P6SM FEW030 SCT050 SCT250
     FM251900 23005KT P6SM VCTS SCT030 BKN050CB BKN250
     FM260000 21004KT P6SM SCT250=

USA.gov is the U.S. government's official web portal to all federal, state and local government web resources and services.